sensor_id;sensor_type;location;lat;lon;timestamp;temperature;humidity
19365;DHT22;9818;48.382;10.850;2024-01-06T00:01:14;19.60;1.00
19365;DHT22;9818;48.382;10.850;2024-01-06T00:03:43;19.60;1.00
19365;DHT22;9818;48.382;10.850;2024-01-06T00:06:12;19.60;1.00
19365;DHT22;9818;48.382;10.850;2024-01-06T00:08:44;19.50;1.00
19365;DHT22;9818;48.382;10.850;2024-01-06T00:11:12;19.50;1.00
19365;DHT22;9818;48.382;10.850;2024-01-06T00:13:41;19.50;1.00
19365;DHT22;9818;48.382;10.850;2024-01-06T00:16:10;19.50;1.00
19365;DHT22;9818;48.382;10.850;2024-01-06T00:18:39;19.40;1.00
19365;DHT22;9818;48.382;10.850;2024-01-06T00:21:08;19.40;1.00
19365;DHT22;9818;48.382;10.850;2024-01-06T00:23:37;19.40;1.00
19365;DHT22;9818;48.382;10.850;2024-01-06T00:26:09;19.40;1.00
19365;DHT22;9818;48.382;10.850;2024-01-06T00:28:39;19.40;1.00
19365;DHT22;9818;48.382;10.850;2024-01-06T00:31:08;19.40;1.00
19365;DHT22;9818;48.382;10.850;2024-01-06T00:33:36;19.40;1.00
19365;DHT22;9818;48.382;10.850;2024-01-06T00:36:07;19.40;1.00
19365;DHT22;9818;48.382;10.850;2024-01-06T00:38:36;19.30;1.00
19365;DHT22;9818;48.382;10.850;2024-01-06T00:41:04;19.30;99.90
19365;DHT22;9818;48.382;10.850;2024-01-06T00:43:36;19.40;99.90
19365;DHT22;9818;48.382;10.850;2024-01-06T00:46:05;19.30;99.90
19365;DHT22;9818;48.382;10.850;2024-01-06T00:48:33;19.30;99.90
19365;DHT22;9818;48.382;10.850;2024-01-06T00:51:03;19.30;99.90
19365;DHT22;9818;48.382;10.850;2024-01-06T00:53:32;19.30;1.00
19365;DHT22;9818;48.382;10.850;2024-01-06T00:56:02;19.30;1.00
19365;DHT22;9818;48.382;10.850;2024-01-06T00:58:32;19.30;1.00
19365;DHT22;9818;48.382;10.850;2024-01-06T01:01:04;19.30;1.00
19365;DHT22;9818;48.382;10.850;2024-01-06T01:03:33;19.40;1.00
19365;DHT22;9818;48.382;10.850;2024-01-06T01:06:02;19.40;1.00
19365;DHT22;9818;48.382;10.850;2024-01-06T01:08:31;19.40;1.00
19365;DHT22;9818;48.382;10.850;2024-01-06T01:11:00;19.40;1.00
19365;DHT22;9818;48.382;10.850;2024-01-06T01:13:29;19.40;1.00
19365;DHT22;9818;48.382;10.850;2024-01-06T01:15:58;19.40;1.00
19365;DHT22;9818;48.382;10.850;2024-01-06T01:18:29;19.40;1.00
19365;DHT22;9818;48.382;10.850;2024-01-06T01:20:58;19.30;1.00
19365;DHT22;9818;48.382;10.850;2024-01-06T01:23:28;19.30;1.00
19365;DHT22;9818;48.382;10.850;2024-01-06T01:25:58;19.40;1.00
19365;DHT22;9818;48.382;10.850;2024-01-06T01:28:27;19.30;1.00
19365;DHT22;9818;48.382;10.850;2024-01-06T01:30:56;19.30;1.00
19365;DHT22;9818;48.382;10.850;2024-01-06T01:33:25;19.30;1.00
19365;DHT22;9818;48.382;10.850;2024-01-06T01:35:57;19.30;1.00
19365;DHT22;9818;48.382;10.850;2024-01-06T01:38:26;19.30;1.00
19365;DHT22;9818;48.382;10.850;2024-01-06T01:40:55;19.30;1.00
19365;DHT22;9818;48.382;10.850;2024-01-06T01:43:25;19.30;1.00
19365;DHT22;9818;48.382;10.850;2024-01-06T01:45:55;19.30;1.00
19365;DHT22;9818;48.382;10.850;2024-01-06T01:48:25;19.30;1.00
19365;DHT22;9818;48.382;10.850;2024-01-06T01:50:57;19.20;1.00
19365;DHT22;9818;48.382;10.850;2024-01-06T01:53:26;19.20;99.90
19365;DHT22;9818;48.382;10.850;2024-01-06T01:55:56;19.30;99.90
19365;DHT22;9818;48.382;10.850;2024-01-06T01:58:25;19.30;99.90
19365;DHT22;9818;48.382;10.850;2024-01-06T02:00:54;19.30;99.90
19365;DHT22;9818;48.382;10.850;2024-01-06T02:03:24;19.30;99.90
19365;DHT22;9818;48.382;10.850;2024-01-06T02:05:56;19.30;99.90
19365;DHT22;9818;48.382;10.850;2024-01-06T02:08:25;19.20;99.90
19365;DHT22;9818;48.382;10.850;2024-01-06T02:10:55;19.30;99.90
19365;DHT22;9818;48.382;10.850;2024-01-06T02:13:27;19.20;99.90
19365;DHT22;9818;48.382;10.850;2024-01-06T02:16:01;19.20;99.90
19365;DHT22;9818;48.382;10.850;2024-01-06T02:18:30;19.20;99.90
19365;DHT22;9818;48.382;10.850;2024-01-06T02:21:03;19.20;99.90
19365;DHT22;9818;48.382;10.850;2024-01-06T02:23:35;19.20;99.90
19365;DHT22;9818;48.382;10.850;2024-01-06T02:26:04;19.20;99.90
19365;DHT22;9818;48.382;10.850;2024-01-06T02:28:33;19.20;99.90
19365;DHT22;9818;48.382;10.850;2024-01-06T02:31:02;19.20;99.90
19365;DHT22;9818;48.382;10.850;2024-01-06T02:33:31;19.20;99.90
19365;DHT22;9818;48.382;10.850;2024-01-06T02:35:59;19.20;99.90
19365;DHT22;9818;48.382;10.850;2024-01-06T02:38:28;19.20;99.90
19365;DHT22;9818;48.382;10.850;2024-01-06T02:41:00;19.10;99.90
19365;DHT22;9818;48.382;10.850;2024-01-06T02:43:28;19.10;99.90
19365;DHT22;9818;48.382;10.850;2024-01-06T02:45:57;19.10;99.90
19365;DHT22;9818;48.382;10.850;2024-01-06T02:48:26;19.10;99.90
19365;DHT22;9818;48.382;10.850;2024-01-06T02:50:56;19.10;99.90
19365;DHT22;9818;48.382;10.850;2024-01-06T02:53:25;19.10;99.90
19365;DHT22;9818;48.382;10.850;2024-01-06T02:55:54;19.10;99.90
19365;DHT22;9818;48.382;10.850;2024-01-06T02:58:25;19.10;99.90
19365;DHT22;9818;48.382;10.850;2024-01-06T03:00:54;19.00;99.90
19365;DHT22;9818;48.382;10.850;2024-01-06T03:03:23;19.00;99.90
19365;DHT22;9818;48.382;10.850;2024-01-06T03:05:51;19.10;99.90
19365;DHT22;9818;48.382;10.850;2024-01-06T03:08:20;19.00;99.90
19365;DHT22;9818;48.382;10.850;2024-01-06T03:10:49;19.00;99.90
19365;DHT22;9818;48.382;10.850;2024-01-06T03:13:18;19.00;99.90
19365;DHT22;9818;48.382;10.850;2024-01-06T03:15:49;19.00;99.90
19365;DHT22;9818;48.382;10.850;2024-01-06T03:18:18;19.00;99.90
19365;DHT22;9818;48.382;10.850;2024-01-06T03:20:47;19.00;99.90
19365;DHT22;9818;48.382;10.850;2024-01-06T03:23:16;19.00;99.90
19365;DHT22;9818;48.382;10.850;2024-01-06T03:25:44;19.00;92.70
19365;DHT22;9818;48.382;10.850;2024-01-06T03:28:13;19.00;91.50
19365;DHT22;9818;48.382;10.850;2024-01-06T03:30:42;19.00;75.30
19365;DHT22;9818;48.382;10.850;2024-01-06T03:33:13;19.00;69.90
19365;DHT22;9818;48.382;10.850;2024-01-06T03:35:42;19.00;59.60
19365;DHT22;9818;48.382;10.850;2024-01-06T03:38:11;18.90;35.00
19365;DHT22;9818;48.382;10.850;2024-01-06T03:40:40;18.90;33.90
19365;DHT22;9818;48.382;10.850;2024-01-06T03:43:08;19.00;23.70
19365;DHT22;9818;48.382;10.850;2024-01-06T03:45:37;19.00;2.50
19365;DHT22;9818;48.382;10.850;2024-01-06T03:48:07;18.90;1.00
19365;DHT22;9818;48.382;10.850;2024-01-06T03:50:38;18.90;1.00
19365;DHT22;9818;48.382;10.850;2024-01-06T03:53:07;18.90;1.00
19365;DHT22;9818;48.382;10.850;2024-01-06T03:55:36;18.90;5.40
19365;DHT22;9818;48.382;10.850;2024-01-06T03:58:05;18.90;1.00
19365;DHT22;9818;48.382;10.850;2024-01-06T04:00:34;18.90;14.60
19365;DHT22;9818;48.382;10.850;2024-01-06T04:03:03;18.90;1.00
19365;DHT22;9818;48.382;10.850;2024-01-06T04:05:32;18.90;1.00
19365;DHT22;9818;48.382;10.850;2024-01-06T04:08:04;18.90;1.00
19365;DHT22;9818;48.382;10.850;2024-01-06T04:10:33;18.80;1.00
19365;DHT22;9818;48.382;10.850;2024-01-06T04:13:02;18.80;1.00
19365;DHT22;9818;48.382;10.850;2024-01-06T04:15:31;18.80;1.00
19365;DHT22;9818;48.382;10.850;2024-01-06T04:18:02;18.80;1.00
19365;DHT22;9818;48.382;10.850;2024-01-06T04:20:32;18.90;1.00
19365;DHT22;9818;48.382;10.850;2024-01-06T04:23:05;18.80;1.00
19365;DHT22;9818;48.382;10.850;2024-01-06T04:25:33;18.80;1.00
19365;DHT22;9818;48.382;10.850;2024-01-06T04:28:03;18.80;1.00
19365;DHT22;9818;48.382;10.850;2024-01-06T04:30:31;18.90;1.00
19365;DHT22;9818;48.382;10.850;2024-01-06T04:33:00;18.80;1.00
19365;DHT22;9818;48.382;10.850;2024-01-06T04:35:29;18.80;1.00
19365;DHT22;9818;48.382;10.850;2024-01-06T04:37:58;18.80;1.00
19365;DHT22;9818;48.382;10.850;2024-01-06T04:40:29;18.80;1.00
19365;DHT22;9818;48.382;10.850;2024-01-06T04:42:58;18.80;1.00
19365;DHT22;9818;48.382;10.850;2024-01-06T04:45:27;18.80;1.00
19365;DHT22;9818;48.382;10.850;2024-01-06T04:47:56;18.80;1.00
19365;DHT22;9818;48.382;10.850;2024-01-06T04:50:24;18.80;1.00
19365;DHT22;9818;48.382;10.850;2024-01-06T04:52:53;18.80;1.00
19365;DHT22;9818;48.382;10.850;2024-01-06T04:55:22;18.80;1.00
19365;DHT22;9818;48.382;10.850;2024-01-06T04:57:53;18.80;1.00
19365;DHT22;9818;48.382;10.850;2024-01-06T05:00:22;18.80;1.00
19365;DHT22;9818;48.382;10.850;2024-01-06T05:02:51;18.70;1.00
19365;DHT22;9818;48.382;10.850;2024-01-06T05:05:20;18.70;1.00
19365;DHT22;9818;48.382;10.850;2024-01-06T05:07:49;18.70;1.00
19365;DHT22;9818;48.382;10.850;2024-01-06T05:10:18;18.70;1.00
19365;DHT22;9818;48.382;10.850;2024-01-06T05:12:46;18.70;1.00
19365;DHT22;9818;48.382;10.850;2024-01-06T05:15:18;18.70;1.00
19365;DHT22;9818;48.382;10.850;2024-01-06T05:17:47;18.70;1.00
19365;DHT22;9818;48.382;10.850;2024-01-06T05:20:15;18.70;1.00
19365;DHT22;9818;48.382;10.850;2024-01-06T05:22:44;18.70;1.00
19365;DHT22;9818;48.382;10.850;2024-01-06T05:25:13;18.70;1.00
19365;DHT22;9818;48.382;10.850;2024-01-06T05:27:42;18.70;1.00
19365;DHT22;9818;48.382;10.850;2024-01-06T05:30:11;18.70;1.00
19365;DHT22;9818;48.382;10.850;2024-01-06T05:32:43;18.70;1.00
19365;DHT22;9818;48.382;10.850;2024-01-06T05:35:11;18.70;1.00
19365;DHT22;9818;48.382;10.850;2024-01-06T05:37:40;18.70;1.00
19365;DHT22;9818;48.382;10.850;2024-01-06T05:40:10;18.70;1.00
19365;DHT22;9818;48.382;10.850;2024-01-06T05:42:39;18.70;1.00
19365;DHT22;9818;48.382;10.850;2024-01-06T05:45:10;18.70;1.00
19365;DHT22;9818;48.382;10.850;2024-01-06T05:47:43;18.70;1.00
19365;DHT22;9818;48.382;10.850;2024-01-06T05:50:14;18.70;1.00
19365;DHT22;9818;48.382;10.850;2024-01-06T05:52:43;18.70;1.00
19365;DHT22;9818;48.382;10.850;2024-01-06T05:55:13;18.70;1.00
19365;DHT22;9818;48.382;10.850;2024-01-06T05:57:41;18.70;1.00
19365;DHT22;9818;48.382;10.850;2024-01-06T06:00:11;18.60;1.00
19365;DHT22;9818;48.382;10.850;2024-01-06T06:02:43;18.70;1.00
19365;DHT22;9818;48.382;10.850;2024-01-06T06:05:12;18.60;1.00
19365;DHT22;9818;48.382;10.850;2024-01-06T06:07:39;18.60;1.00
19365;DHT22;9818;48.382;10.850;2024-01-06T06:10:10;18.70;1.00
19365;DHT22;9818;48.382;10.850;2024-01-06T06:12:39;18.60;1.00
19365;DHT22;9818;48.382;10.850;2024-01-06T06:15:08;18.60;1.00
19365;DHT22;9818;48.382;10.850;2024-01-06T06:17:37;18.60;1.00
19365;DHT22;9818;48.382;10.850;2024-01-06T06:20:09;18.60;1.00
19365;DHT22;9818;48.382;10.850;2024-01-06T06:22:38;18.60;1.00
19365;DHT22;9818;48.382;10.850;2024-01-06T06:25:07;18.60;1.00
19365;DHT22;9818;48.382;10.850;2024-01-06T06:27:36;18.60;1.00
19365;DHT22;9818;48.382;10.850;2024-01-06T06:30:07;18.60;1.00
19365;DHT22;9818;48.382;10.850;2024-01-06T06:32:36;18.60;1.00
19365;DHT22;9818;48.382;10.850;2024-01-06T06:35:09;18.60;1.00
19365;DHT22;9818;48.382;10.850;2024-01-06T06:37:37;18.60;1.00
19365;DHT22;9818;48.382;10.850;2024-01-06T06:40:07;18.60;1.00
19365;DHT22;9818;48.382;10.850;2024-01-06T06:42:36;18.60;1.00
19365;DHT22;9818;48.382;10.850;2024-01-06T06:45:06;18.60;1.00
19365;DHT22;9818;48.382;10.850;2024-01-06T06:47:37;18.60;1.00
19365;DHT22;9818;48.382;10.850;2024-01-06T06:50:09;18.60;1.00
19365;DHT22;9818;48.382;10.850;2024-01-06T06:52:38;18.60;1.00
19365;DHT22;9818;48.382;10.850;2024-01-06T06:55:08;18.50;1.00
19365;DHT22;9818;48.382;10.850;2024-01-06T06:57:37;18.60;1.00
19365;DHT22;9818;48.382;10.850;2024-01-06T07:00:07;18.60;1.00
19365;DHT22;9818;48.382;10.850;2024-01-06T07:02:36;18.60;1.00
19365;DHT22;9818;48.382;10.850;2024-01-06T07:05:06;18.60;1.00
19365;DHT22;9818;48.382;10.850;2024-01-06T07:07:37;18.60;1.00
19365;DHT22;9818;48.382;10.850;2024-01-06T07:10:07;18.50;1.00
19365;DHT22;9818;48.382;10.850;2024-01-06T07:12:36;18.50;1.00
19365;DHT22;9818;48.382;10.850;2024-01-06T07:15:06;18.50;1.00
19365;DHT22;9818;48.382;10.850;2024-01-06T07:17:36;18.50;1.00
19365;DHT22;9818;48.382;10.850;2024-01-06T07:20:07;18.50;1.00
19365;DHT22;9818;48.382;10.850;2024-01-06T07:22:38;18.50;1.00
19365;DHT22;9818;48.382;10.850;2024-01-06T07:25:07;18.50;1.00
19365;DHT22;9818;48.382;10.850;2024-01-06T07:27:36;18.50;1.00
19365;DHT22;9818;48.382;10.850;2024-01-06T07:30:06;18.50;1.00
19365;DHT22;9818;48.382;10.850;2024-01-06T07:32:36;18.50;1.00
19365;DHT22;9818;48.382;10.850;2024-01-06T07:35:05;18.50;1.00
19365;DHT22;9818;48.382;10.850;2024-01-06T07:37:34;18.50;1.00
19365;DHT22;9818;48.382;10.850;2024-01-06T07:40:06;18.50;1.00
19365;DHT22;9818;48.382;10.850;2024-01-06T07:42:35;18.40;1.00
19365;DHT22;9818;48.382;10.850;2024-01-06T07:45:05;18.50;1.00
19365;DHT22;9818;48.382;10.850;2024-01-06T07:47:34;18.50;1.00
19365;DHT22;9818;48.382;10.850;2024-01-06T07:50:05;18.50;1.00
19365;DHT22;9818;48.382;10.850;2024-01-06T07:52:34;18.50;1.00
19365;DHT22;9818;48.382;10.850;2024-01-06T07:55:06;18.50;1.00
19365;DHT22;9818;48.382;10.850;2024-01-06T07:57:35;18.50;1.00
19365;DHT22;9818;48.382;10.850;2024-01-06T08:00:05;18.60;1.00
19365;DHT22;9818;48.382;10.850;2024-01-06T08:02:34;18.60;1.00
19365;DHT22;9818;48.382;10.850;2024-01-06T08:05:03;18.60;1.00
19365;DHT22;9818;48.382;10.850;2024-01-06T08:07:32;18.60;1.00
19365;DHT22;9818;48.382;10.850;2024-01-06T08:10:01;18.70;49.80
19365;DHT22;9818;48.382;10.850;2024-01-06T08:12:33;18.70;74.90
19365;DHT22;9818;48.382;10.850;2024-01-06T08:15:03;18.70;1.00
19365;DHT22;9818;48.382;10.850;2024-01-06T08:17:34;18.70;5.00
19365;DHT22;9818;48.382;10.850;2024-01-06T08:20:03;18.70;1.00
19365;DHT22;9818;48.382;10.850;2024-01-06T08:22:32;18.70;1.00
19365;DHT22;9818;48.382;10.850;2024-01-06T08:25:01;18.70;1.00
19365;DHT22;9818;48.382;10.850;2024-01-06T08:27:34;18.70;1.00
19365;DHT22;9818;48.382;10.850;2024-01-06T08:30:04;18.70;1.00
19365;DHT22;9818;48.382;10.850;2024-01-06T08:32:33;18.70;99.90
19365;DHT22;9818;48.382;10.850;2024-01-06T08:35:02;18.70;1.00
19365;DHT22;9818;48.382;10.850;2024-01-06T08:37:31;18.70;99.90
19365;DHT22;9818;48.382;10.850;2024-01-06T08:40:00;18.80;99.90
19365;DHT22;9818;48.382;10.850;2024-01-06T08:42:30;18.80;99.90
19365;DHT22;9818;48.382;10.850;2024-01-06T08:45:02;18.90;99.90
19365;DHT22;9818;48.382;10.850;2024-01-06T08:47:30;18.90;1.00
19365;DHT22;9818;48.382;10.850;2024-01-06T08:49:59;18.80;99.90
19365;DHT22;9818;48.382;10.850;2024-01-06T08:52:28;18.90;99.90
19365;DHT22;9818;48.382;10.850;2024-01-06T08:54:57;18.80;99.90
19365;DHT22;9818;48.382;10.850;2024-01-06T08:57:26;18.80;99.90
19365;DHT22;9818;48.382;10.850;2024-01-06T08:59:54;18.80;99.90
19365;DHT22;9818;48.382;10.850;2024-01-06T09:02:27;18.80;99.90
19365;DHT22;9818;48.382;10.850;2024-01-06T09:04:55;18.80;99.90
19365;DHT22;9818;48.382;10.850;2024-01-06T09:07:24;18.80;99.90
19365;DHT22;9818;48.382;10.850;2024-01-06T09:09:53;18.80;99.90
19365;DHT22;9818;48.382;10.850;2024-01-06T09:12:22;18.80;99.90
19365;DHT22;9818;48.382;10.850;2024-01-06T09:14:50;18.80;99.90
19365;DHT22;9818;48.382;10.850;2024-01-06T09:17:19;18.80;99.90
19365;DHT22;9818;48.382;10.850;2024-01-06T09:19:51;18.80;99.90
19365;DHT22;9818;48.382;10.850;2024-01-06T09:22:19;18.80;99.90
19365;DHT22;9818;48.382;10.850;2024-01-06T09:24:49;18.90;99.90
19365;DHT22;9818;48.382;10.850;2024-01-06T09:27:18;18.90;99.90
19365;DHT22;9818;48.382;10.850;2024-01-06T09:29:47;18.90;1.00
19365;DHT22;9818;48.382;10.850;2024-01-06T09:32:16;18.90;1.00
19365;DHT22;9818;48.382;10.850;2024-01-06T09:34:45;18.90;1.00
19365;DHT22;9818;48.382;10.850;2024-01-06T09:37:16;19.00;1.00
19365;DHT22;9818;48.382;10.850;2024-01-06T09:39:45;19.00;1.00
19365;DHT22;9818;48.382;10.850;2024-01-06T09:42:15;19.00;1.00
19365;DHT22;9818;48.382;10.850;2024-01-06T09:44:44;19.00;1.00
19365;DHT22;9818;48.382;10.850;2024-01-06T09:47:13;19.00;1.00
19365;DHT22;9818;48.382;10.850;2024-01-06T09:49:48;19.00;1.00
19365;DHT22;9818;48.382;10.850;2024-01-06T09:52:22;19.00;1.00
19365;DHT22;9818;48.382;10.850;2024-01-06T09:54:52;19.00;1.00
19365;DHT22;9818;48.382;10.850;2024-01-06T09:57:23;18.90;99.90
19365;DHT22;9818;48.382;10.850;2024-01-06T09:59:52;18.90;99.90
19365;DHT22;9818;48.382;10.850;2024-01-06T10:02:21;18.90;99.90
19365;DHT22;9818;48.382;10.850;2024-01-06T10:04:50;18.90;99.90
19365;DHT22;9818;48.382;10.850;2024-01-06T10:07:22;19.00;1.00
19365;DHT22;9818;48.382;10.850;2024-01-06T10:09:54;18.90;1.00
19365;DHT22;9818;48.382;10.850;2024-01-06T10:12:25;19.00;1.00
19365;DHT22;9818;48.382;10.850;2024-01-06T10:14:54;19.00;1.00
19365;DHT22;9818;48.382;10.850;2024-01-06T10:17:23;19.00;1.00
19365;DHT22;9818;48.382;10.850;2024-01-06T10:19:52;19.00;1.00
19365;DHT22;9818;48.382;10.850;2024-01-06T10:22:25;19.00;1.00
19365;DHT22;9818;48.382;10.850;2024-01-06T10:24:55;19.10;1.00
19365;DHT22;9818;48.382;10.850;2024-01-06T10:27:23;19.00;1.00
19365;DHT22;9818;48.382;10.850;2024-01-06T10:29:52;19.10;1.00
19365;DHT22;9818;48.382;10.850;2024-01-06T10:32:21;19.10;1.00
19365;DHT22;9818;48.382;10.850;2024-01-06T10:34:54;19.10;1.00
19365;DHT22;9818;48.382;10.850;2024-01-06T10:37:26;19.20;1.00
19365;DHT22;9818;48.382;10.850;2024-01-06T10:40:09;19.20;1.00
19365;DHT22;9818;48.382;10.850;2024-01-06T10:42:38;19.20;99.90
19365;DHT22;9818;48.382;10.850;2024-01-06T10:45:09;19.30;99.90
19365;DHT22;9818;48.382;10.850;2024-01-06T10:47:40;19.20;99.90
19365;DHT22;9818;48.382;10.850;2024-01-06T10:50:09;19.20;99.90
19365;DHT22;9818;48.382;10.850;2024-01-06T10:52:43;19.30;99.90
19365;DHT22;9818;48.382;10.850;2024-01-06T10:55:13;19.30;99.90
19365;DHT22;9818;48.382;10.850;2024-01-06T10:57:44;19.30;99.90
19365;DHT22;9818;48.382;10.850;2024-01-06T11:00:15;19.30;99.90
19365;DHT22;9818;48.382;10.850;2024-01-06T11:02:44;19.30;99.90
19365;DHT22;9818;48.382;10.850;2024-01-06T11:05:13;19.30;99.90
19365;DHT22;9818;48.382;10.850;2024-01-06T11:07:45;19.40;99.90
19365;DHT22;9818;48.382;10.850;2024-01-06T11:10:18;19.40;99.90
19365;DHT22;9818;48.382;10.850;2024-01-06T11:13:10;19.40;99.90
19365;DHT22;9818;48.382;10.850;2024-01-06T11:15:43;19.40;99.90
19365;DHT22;9818;48.382;10.850;2024-01-06T11:18:31;19.40;99.90
19365;DHT22;9818;48.382;10.850;2024-01-06T11:21:16;19.40;99.90
19365;DHT22;9818;48.382;10.850;2024-01-06T11:26:56;19.40;99.90
19365;DHT22;9818;48.382;10.850;2024-01-06T11:29:25;19.40;99.90
19365;DHT22;9818;48.382;10.850;2024-01-06T11:32:18;19.40;99.90
19365;DHT22;9818;48.382;10.850;2024-01-06T11:34:49;19.40;99.90
19365;DHT22;9818;48.382;10.850;2024-01-06T11:37:26;19.50;99.90
19365;DHT22;9818;48.382;10.850;2024-01-06T11:40:03;19.50;99.90
19365;DHT22;9818;48.382;10.850;2024-01-06T11:42:35;19.50;99.90
19365;DHT22;9818;48.382;10.850;2024-01-06T11:45:05;19.50;99.90
19365;DHT22;9818;48.382;10.850;2024-01-06T11:47:34;19.50;99.90
19365;DHT22;9818;48.382;10.850;2024-01-06T11:50:04;19.50;99.90
19365;DHT22;9818;48.382;10.850;2024-01-06T11:52:33;19.50;39.50
19365;DHT22;9818;48.382;10.850;2024-01-06T11:55:03;19.50;50.20
19365;DHT22;9818;48.382;10.850;2024-01-06T11:57:36;19.50;49.20
19365;DHT22;9818;48.382;10.850;2024-01-06T12:00:06;19.40;99.90
19365;DHT22;9818;48.382;10.850;2024-01-06T12:02:35;19.50;99.90
19365;DHT22;9818;48.382;10.850;2024-01-06T12:05:04;19.50;99.90
19365;DHT22;9818;48.382;10.850;2024-01-06T12:07:34;19.50;42.80
19365;DHT22;9818;48.382;10.850;2024-01-06T12:10:03;19.50;79.80
19365;DHT22;9818;48.382;10.850;2024-01-06T12:12:36;19.60;99.90
19365;DHT22;9818;48.382;10.850;2024-01-06T12:15:05;19.70;90.50
19365;DHT22;9818;48.382;10.850;2024-01-06T12:17:36;19.60;99.90
19365;DHT22;9818;48.382;10.850;2024-01-06T12:20:08;19.70;99.90
19365;DHT22;9818;48.382;10.850;2024-01-06T12:22:37;19.70;99.90
19365;DHT22;9818;48.382;10.850;2024-01-06T12:25:08;19.70;99.90
19365;DHT22;9818;48.382;10.850;2024-01-06T12:27:44;19.80;99.90
19365;DHT22;9818;48.382;10.850;2024-01-06T12:30:14;19.80;99.90
19365;DHT22;9818;48.382;10.850;2024-01-06T12:32:47;19.80;99.90
19365;DHT22;9818;48.382;10.850;2024-01-06T12:35:17;19.80;99.90
19365;DHT22;9818;48.382;10.850;2024-01-06T12:37:46;19.80;99.90
19365;DHT22;9818;48.382;10.850;2024-01-06T12:40:16;19.80;99.90
19365;DHT22;9818;48.382;10.850;2024-01-06T12:42:48;19.80;99.90
19365;DHT22;9818;48.382;10.850;2024-01-06T12:45:17;19.80;99.90
19365;DHT22;9818;48.382;10.850;2024-01-06T12:47:45;19.90;99.90
19365;DHT22;9818;48.382;10.850;2024-01-06T12:50:14;19.90;99.90
19365;DHT22;9818;48.382;10.850;2024-01-06T12:52:45;19.90;99.90
19365;DHT22;9818;48.382;10.850;2024-01-06T12:55:14;19.90;99.90
19365;DHT22;9818;48.382;10.850;2024-01-06T12:57:42;19.90;1.00
19365;DHT22;9818;48.382;10.850;2024-01-06T13:00:15;19.90;99.90
19365;DHT22;9818;48.382;10.850;2024-01-06T13:02:44;19.90;99.90
19365;DHT22;9818;48.382;10.850;2024-01-06T13:05:13;20.00;79.90
19365;DHT22;9818;48.382;10.850;2024-01-06T13:07:42;20.00;99.90
19365;DHT22;9818;48.382;10.850;2024-01-06T13:10:11;20.00;99.90
19365;DHT22;9818;48.382;10.850;2024-01-06T13:12:39;20.00;99.90
19365;DHT22;9818;48.382;10.850;2024-01-06T13:15:09;20.00;41.10
19365;DHT22;9818;48.382;10.850;2024-01-06T13:17:40;20.00;99.90
19365;DHT22;9818;48.382;10.850;2024-01-06T13:20:10;20.00;99.90
19365;DHT22;9818;48.382;10.850;2024-01-06T13:22:39;20.00;99.90
19365;DHT22;9818;48.382;10.850;2024-01-06T13:25:08;20.10;22.30
19365;DHT22;9818;48.382;10.850;2024-01-06T13:27:37;20.10;82.50
19365;DHT22;9818;48.382;10.850;2024-01-06T13:30:07;20.20;1.00
19365;DHT22;9818;48.382;10.850;2024-01-06T13:32:41;20.20;59.90
19365;DHT22;9818;48.382;10.850;2024-01-06T13:35:10;20.30;99.90
19365;DHT22;9818;48.382;10.850;2024-01-06T13:37:39;20.30;99.90
19365;DHT22;9818;48.382;10.850;2024-01-06T13:40:09;20.30;99.90
19365;DHT22;9818;48.382;10.850;2024-01-06T13:42:38;20.30;1.00
19365;DHT22;9818;48.382;10.850;2024-01-06T13:45:08;20.30;45.80
19365;DHT22;9818;48.382;10.850;2024-01-06T13:47:36;20.30;3.10
19365;DHT22;9818;48.382;10.850;2024-01-06T13:50:11;20.30;1.00
19365;DHT22;9818;48.382;10.850;2024-01-06T13:52:40;20.40;1.00
19365;DHT22;9818;48.382;10.850;2024-01-06T13:55:09;20.40;1.00
19365;DHT22;9818;48.382;10.850;2024-01-06T13:57:39;20.40;1.00
19365;DHT22;9818;48.382;10.850;2024-01-06T14:00:09;20.40;99.90
19365;DHT22;9818;48.382;10.850;2024-01-06T14:02:41;20.40;99.90
19365;DHT22;9818;48.382;10.850;2024-01-06T14:05:13;20.40;99.90
19365;DHT22;9818;48.382;10.850;2024-01-06T14:07:42;20.40;1.00
19365;DHT22;9818;48.382;10.850;2024-01-06T14:10:14;20.40;1.00
19365;DHT22;9818;48.382;10.850;2024-01-06T14:12:43;20.40;87.70
19365;DHT22;9818;48.382;10.850;2024-01-06T14:15:12;20.50;99.90
19365;DHT22;9818;48.382;10.850;2024-01-06T14:17:41;20.50;1.00
19365;DHT22;9818;48.382;10.850;2024-01-06T14:20:17;20.50;99.90
19365;DHT22;9818;48.382;10.850;2024-01-06T14:22:47;20.50;1.00
19365;DHT22;9818;48.382;10.850;2024-01-06T14:25:16;20.50;1.00
19365;DHT22;9818;48.382;10.850;2024-01-06T14:27:46;20.50;1.00
19365;DHT22;9818;48.382;10.850;2024-01-06T14:30:15;20.40;1.00
19365;DHT22;9818;48.382;10.850;2024-01-06T14:32:45;20.40;1.00
19365;DHT22;9818;48.382;10.850;2024-01-06T14:35:17;20.40;1.00
19365;DHT22;9818;48.382;10.850;2024-01-06T14:37:46;20.40;1.00
19365;DHT22;9818;48.382;10.850;2024-01-06T14:40:15;20.40;1.00
19365;DHT22;9818;48.382;10.850;2024-01-06T14:42:44;20.30;1.00
19365;DHT22;9818;48.382;10.850;2024-01-06T14:45:13;20.30;1.00
19365;DHT22;9818;48.382;10.850;2024-01-06T14:47:44;20.30;1.00
19365;DHT22;9818;48.382;10.850;2024-01-06T14:50:12;20.30;1.00
19365;DHT22;9818;48.382;10.850;2024-01-06T14:52:44;20.30;1.00
19365;DHT22;9818;48.382;10.850;2024-01-06T14:55:13;20.30;1.00
19365;DHT22;9818;48.382;10.850;2024-01-06T14:57:42;20.40;1.00
19365;DHT22;9818;48.382;10.850;2024-01-06T15:00:12;20.40;1.00
19365;DHT22;9818;48.382;10.850;2024-01-06T15:02:40;20.30;1.00
19365;DHT22;9818;48.382;10.850;2024-01-06T15:05:12;20.30;1.00
19365;DHT22;9818;48.382;10.850;2024-01-06T15:07:44;20.30;78.70
19365;DHT22;9818;48.382;10.850;2024-01-06T15:10:13;20.30;99.90
19365;DHT22;9818;48.382;10.850;2024-01-06T15:12:42;20.30;99.90
19365;DHT22;9818;48.382;10.850;2024-01-06T15:15:10;20.30;99.90
19365;DHT22;9818;48.382;10.850;2024-01-06T15:17:39;20.30;99.90
19365;DHT22;9818;48.382;10.850;2024-01-06T15:20:09;20.30;99.90
19365;DHT22;9818;48.382;10.850;2024-01-06T15:22:38;20.30;99.90
19365;DHT22;9818;48.382;10.850;2024-01-06T15:25:09;20.30;1.00
19365;DHT22;9818;48.382;10.850;2024-01-06T15:27:38;20.30;1.00
19365;DHT22;9818;48.382;10.850;2024-01-06T15:30:08;20.40;99.90
19365;DHT22;9818;48.382;10.850;2024-01-06T15:32:37;20.40;1.00
19365;DHT22;9818;48.382;10.850;2024-01-06T15:35:07;20.40;99.90
19365;DHT22;9818;48.382;10.850;2024-01-06T15:37:36;20.40;99.90
19365;DHT22;9818;48.382;10.850;2024-01-06T15:40:09;20.40;99.90
19365;DHT22;9818;48.382;10.850;2024-01-06T15:42:38;20.40;99.90
19365;DHT22;9818;48.382;10.850;2024-01-06T15:45:07;20.40;1.00
19365;DHT22;9818;48.382;10.850;2024-01-06T15:47:37;20.50;1.00
19365;DHT22;9818;48.382;10.850;2024-01-06T15:50:06;20.50;1.00
19365;DHT22;9818;48.382;10.850;2024-01-06T15:52:36;20.50;99.90
19365;DHT22;9818;48.382;10.850;2024-01-06T15:55:06;20.50;99.90
19365;DHT22;9818;48.382;10.850;2024-01-06T15:57:38;20.50;98.60
19365;DHT22;9818;48.382;10.850;2024-01-06T16:00:09;20.50;71.90